Laurel, Montana
Current Conditions -  °F | °C
As of 6:53 AM on Monday 22 Dec 2014 (Local Time) from KBIL Reporting Station
Scattered Clouds Scattered Clouds  
Wind Chill: 25°   Ceiling: Unl
Heat Index: 34°   Visibility: 10mi
Dew Point: 25°   Wind: 13mph
Humidity: 70%   Direction: 300°WNW
Pressure: 29.76"   Gusts: NA
Location:  45.67°N, 108.77°W
Report Text: KBIL 221353Z 30011KT 10SM FEW065 SCT150 01/M04 A2976 RMK AO2 SLP092 T00111039
Loading
Personal Weather Stations






























Interactive Weather Map New forecast layout! Learn more

10-Day Weather Forecast

Advertisements
Track Severe Weather on mobile